Time;durP1;ratioP1;P1;durP2;ratioP2;P2;SDS_P1;SDS_P2;PMS_P1;PMS_P2;Temp;Humidity;BMP_temperature;BMP_pressure;BME280_temperature;BME280_humidity;BME280_pressure;Samples;Min_cycle;Max_cycle;Signal;HPM_P1;HPM_P2
2022/12/28 00:02:11;;;;;;;7.20;3.80;;;;;;;6.72;76.74;101574.09;5049557;28;20797;-69
2022/12/28 00:04:36;;;;;;;8.32;4.43;;;;;;;6.76;76.10;101572.59;5049682;28;20029;-69
2022/12/28 00:07:02;;;;;;;7.07;4.20;;;;;;;6.78;76.04;101579.63;5048972;28;20473;-68
2022/12/28 00:09:27;;;;;;;10.00;4.30;;;;;;;6.82;75.81;101571.78;5049338;28;20043;-69
2022/12/28 00:11:53;;;;;;;10.15;4.18;;;;;;;6.84;76.17;101558.63;5046412;28;20025;-71
2022/12/28 00:14:19;;;;;;;6.43;4.30;;;;;;;6.85;75.69;101549.28;5044178;28;21673;-69
2022/12/28 00:16:45;;;;;;;12.05;4.95;;;;;;;6.79;76.04;101542.69;5048749;28;20017;-70
2022/12/28 00:19:13;;;;;;;9.48;4.28;;;;;;;6.78;76.19;101531.88;5047616;28;20033;-70
2022/12/28 00:21:39;;;;;;;10.68;4.53;;;;;;;6.79;75.80;101526.13;5045808;28;20068;-69
2022/12/28 00:24:05;;;;;;;7.47;4.30;;;;;;;6.76;76.03;101507.28;5048525;28;20043;-69
2022/12/28 00:26:33;;;;;;;9.43;4.60;;;;;;;6.75;76.11;101501.94;5044616;28;20495;-70
2022/12/28 00:28:59;;;;;;;9.57;4.20;;;;;;;6.77;75.87;101475.84;5047532;28;20071;-70
2022/12/28 00:31:24;;;;;;;9.07;4.25;;;;;;;6.76;75.92;101489.84;5047645;28;20082;-70
2022/12/28 00:33:50;;;;;;;9.90;4.60;;;;;;;6.76;75.92;101493.47;5050618;28;20040;-67
2022/12/28 00:36:15;;;;;;;8.25;4.03;;;;;;;6.78;75.78;101484.97;5051105;28;20037;-67
2022/12/28 00:38:42;;;;;;;7.13;4.25;;;;;;;6.81;76.35;101490.06;5049360;28;20028;-67
2022/12/28 00:41:07;;;;;;;9.02;3.85;;;;;;;6.77;76.12;101486.03;5049916;28;20503;-68
2022/12/28 00:43:32;;;;;;;8.95;4.35;;;;;;;6.77;75.87;101491.56;5043435;28;20053;-67
2022/12/28 00:45:58;;;;;;;7.90;4.20;;;;;;;6.78;76.83;101482.22;5035414;28;20061;-67
2022/12/28 00:48:23;;;;;;;7.10;4.43;;;;;;;6.75;76.43;101477.13;5052451;28;20048;-68
2022/12/28 00:50:48;;;;;;;9.77;4.30;;;;;;;6.75;76.32;101472.44;5051723;28;20090;-67
2022/12/28 00:53:14;;;;;;;8.25;4.53;;;;;;;6.79;76.52;101467.34;5052159;28;20376;-68
2022/12/28 00:55:40;;;;;;;6.38;4.38;;;;;;;6.82;76.41;101453.97;5047584;28;20028;-67
2022/12/28 00:58:06;;;;;;;6.70;4.53;;;;;;;6.84;76.47;101449.09;5050137;28;20103;-68
2022/12/28 01:00:33;;;;;;;6.70;4.13;;;;;;;6.85;76.61;101459.06;5051367;28;20033;-68
2022/12/28 01:02:59;;;;;;;7.10;4.53;;;;;;;6.86;76.42;101441.44;5050086;28;20049;-67
2022/12/28 01:05:25;;;;;;;8.93;4.60;;;;;;;6.83;76.55;101441.03;5051805;28;20033;-67
2022/12/28 01:07:50;;;;;;;7.88;4.18;;;;;;;6.80;76.33;101442.31;5053211;28;20104;-68
2022/12/28 01:10:16;;;;;;;8.27;4.90;;;;;;;6.82;76.02;101439.34;5042130;28;20029;-68
2022/12/28 01:12:45;;;;;;;7.65;4.72;;;;;;;6.81;76.13;101444.00;5040103;28;20119;-68
2022/12/28 01:15:11;;;;;;;6.50;4.32;;;;;;;6.84;76.38;101429.78;5047537;28;20095;-68
2022/12/28 01:17:37;;;;;;;8.07;4.75;;;;;;;6.89;75.82;101435.50;5048465;28;20033;-69
2022/12/28 01:20:05;;;;;;;10.27;4.88;;;;;;;6.95;76.33;101432.94;5045351;28;20361;-68
2022/12/28 01:22:32;;;;;;;7.05;4.43;;;;;;;6.96;75.46;101418.09;5040067;28;20036;-68
2022/12/28 01:24:58;;;;;;;6.38;4.78;;;;;;;6.97;76.21;101415.13;5051862;28;20029;-69
2022/12/28 01:27:24;;;;;;;5.60;4.45;;;;;;;6.95;76.20;101417.22;5052350;28;20051;-68
2022/12/28 01:29:49;;;;;;;6.40;4.20;;;;;;;6.97;75.83;101419.78;5051532;28;20060;-68
2022/12/28 01:32:14;;;;;;;5.85;4.70;;;;;;;6.99;76.28;101404.69;5050920;28;20044;-68
2022/12/28 01:34:39;;;;;;;9.73;5.28;;;;;;;6.96;76.34;101396.88;5052761;28;20642;-68
2022/12/28 01:37:05;;;;;;;7.72;4.55;;;;;;;6.96;75.69;101396.88;5041833;28;20039;-68
2022/12/28 01:39:30;;;;;;;8.80;4.60;;;;;;;6.97;76.71;101404.06;5051126;28;20025;-69
2022/12/28 01:41:56;;;;;;;7.70;5.00;;;;;;;6.96;76.12;101394.09;5051906;28;20418;-68
2022/12/28 01:44:38;;;;;;;7.00;4.80;;;;;;;6.97;76.15;101398.56;5050818;28;20040;-68
2022/12/28 01:47:08;;;;;;;5.80;4.35;;;;;;;6.97;76.34;101389.44;5052319;28;20021;-68
2022/12/28 01:49:49;;;;;;;7.95;4.70;;;;;;;7.00;76.21;101394.53;5049778;28;20491;-68
2022/12/28 01:52:18;;;;;;;7.38;4.20;;;;;;;7.00;76.24;101380.72;5049119;28;20496;-69
2022/12/28 01:55:10;;;;;;;5.30;4.25;;;;;;;7.05;76.70;101361.59;5036732;28;20068;-68
2022/12/28 01:57:46;;;;;;;8.23;4.18;;;;;;;7.07;76.43;101367.72;5037850;28;20100;-68
2022/12/28 02:00:14;;;;;;;6.43;4.13;;;;;;;7.03;76.25;101363.72;5050767;28;20041;-68
2022/12/28 02:02:45;;;;;;;8.85;4.30;;;;;;;7.01;76.74;101355.66;5050099;28;20106;-68
2022/12/28 02:05:11;;;;;;;6.20;4.25;;;;;;;7.03;77.10;101349.91;5049205;28;20055;-68
2022/12/28 02:07:41;;;;;;;7.72;4.25;;;;;;;7.04;75.96;101341.44;5051084;28;20048;-69
2022/12/28 02:10:10;;;;;;;7.00;4.07;;;;;;;7.06;76.24;101328.25;5047280;28;20025;-69
2022/12/28 02:12:38;;;;;;;6.78;4.07;;;;;;;7.05;76.45;101334.84;5050032;28;20103;-69
2022/12/28 02:15:04;;;;;;;7.45;4.07;;;;;;;7.06;76.71;101324.63;5050684;28;20025;-69
2022/12/28 02:17:30;;;;;;;9.57;4.10;;;;;;;7.07;76.77;101323.56;5050826;28;20031;-69
2022/12/28 02:19:58;;;;;;;8.82;3.75;;;;;;;7.09;76.78;101302.97;5049052;28;20444;-68
2022/12/28 02:23:01;;;;;;;6.38;3.70;;;;;;;7.12;76.49;101298.94;5047577;28;20396;-68
2022/12/28 02:25:47;;;;;;;9.93;4.32;;;;;;;7.13;76.84;101290.41;5049458;28;20075;-68
2022/12/28 02:28:46;;;;;;;5.72;3.63;;;;;;;7.17;76.96;101292.75;5047896;28;20047;-69
2022/12/28 02:31:19;;;;;;;7.20;4.20;;;;;;;7.16;77.56;101271.75;5048908;28;20048;-68
2022/12/28 02:33:57;;;;;;;14.20;4.20;;;;;;;7.16;77.54;101272.59;5049938;28;20647;-68
2022/12/28 02:36:28;;;;;;;4.35;3.60;;;;;;;7.16;77.85;101261.53;5050636;28;20043;-69
2022/12/28 02:38:58;;;;;;;5.28;3.50;;;;;;;7.20;78.51;101264.72;5049394;28;20086;-69
2022/12/28 02:41:25;;;;;;;4.82;3.50;;;;;;;7.20;78.10;101259.19;5048555;28;20036;-69
2022/12/28 02:43:52;;;;;;;6.70;3.97;;;;;;;7.20;78.73;101264.72;5050704;28;20028;-69
2022/12/28 02:52:36;;;;;;;5.07;4.00;;;;;;;7.22;79.29;101265.31;5045785;28;20071;-68
2022/12/28 02:56:06;;;;;;;6.95;4.45;;;;;;;7.20;79.70;101256.41;5047202;28;20629;-68
2022/12/28 02:59:09;;;;;;;8.32;4.40;;;;;;;7.24;79.76;101249.38;5048583;28;20063;-68
2022/12/28 03:02:04;;;;;;;6.38;3.90;;;;;;;7.25;80.04;101240.03;5047816;28;20466;-69
2022/12/28 03:04:59;;;;;;;6.18;4.05;;;;;;;7.26;80.81;101230.66;5047115;28;20170;-68
2022/12/28 03:10:34;;;;;;;6.10;4.22;;;;;;;7.18;81.44;101244.75;5048674;28;20068;-68
2022/12/28 03:13:00;;;;;;;8.07;4.70;;;;;;;7.17;81.45;101232.84;5039305;28;20152;-68
2022/12/28 03:15:32;;;;;;;7.78;4.65;;;;;;;7.17;81.90;101232.84;5044252;28;20423;-68
2022/12/28 03:32:07;;;;;;;7.28;4.70;;;;;;;7.22;83.15;101210.09;5050047;28;20098;-69
2022/12/28 03:34:33;;;;;;;6.75;4.78;;;;;;;7.22;83.11;101212.84;5047769;28;20076;-69
2022/12/28 03:37:09;;;;;;;6.13;4.70;;;;;;;7.22;83.30;101210.09;5046900;28;20064;-69
2022/12/28 03:39:51;;;;;;;9.23;4.40;;;;;;;7.26;83.29;101206.66;5048687;28;20723;-69
2022/12/28 03:45:32;;;;;;;8.25;5.38;;;;;;;7.33;82.54;101203.88;5048895;28;20538;-69
2022/12/28 03:48:01;;;;;;;5.72;4.43;;;;;;;7.36;83.10;101200.66;5047486;28;20092;-69
2022/12/28 03:50:29;;;;;;;5.75;4.55;;;;;;;7.34;83.45;101200.03;5045944;28;20048;-68
2022/12/28 03:52:57;;;;;;;7.93;4.60;;;;;;;7.33;83.52;101193.66;5041818;28;20025;-68
2022/12/28 03:55:23;;;;;;;7.88;4.30;;;;;;;7.36;83.26;101186.84;5049485;28;20055;-68
2022/12/28 03:57:48;;;;;;;6.07;4.57;;;;;;;7.39;82.96;101186.41;5047934;28;20554;-69
2022/12/28 04:00:14;;;;;;;6.43;4.28;;;;;;;7.40;83.46;101192.78;5048941;28;20025;-69
2022/12/28 04:02:39;;;;;;;6.20;4.53;;;;;;;7.40;83.31;101188.09;5049377;28;20091;-68
2022/12/28 04:05:05;;;;;;;7.70;4.60;;;;;;;7.38;83.68;101184.69;5047064;28;20036;-69
2022/12/28 04:07:30;;;;;;;5.28;4.38;;;;;;;7.36;83.75;101176.66;5049301;28;20039;-69
2022/12/28 04:09:55;;;;;;;5.20;4.47;;;;;;;7.35;84.20;101171.38;5033761;28;20037;-69
2022/12/28 04:12:21;;;;;;;4.25;3.70;;;;;;;7.41;83.37;101177.91;5047804;28;20040;-69
2022/12/28 04:14:46;;;;;;;5.35;4.10;;;;;;;7.43;83.27;101179.38;5052457;28;20031;-68
2022/12/28 04:17:11;;;;;;;5.57;4.15;;;;;;;7.46;83.28;101178.91;5052805;28;20426;-68
2022/12/28 04:19:37;;;;;;;6.97;4.32;;;;;;;7.48;84.29;101175.94;5049338;28;20017;-68
2022/12/28 04:22:02;;;;;;;7.82;4.45;;;;;;;7.47;83.79;101183.38;5053100;28;20043;-69
2022/12/28 04:24:27;;;;;;;8.35;4.45;;;;;;;7.48;83.76;101179.53;5053200;28;20040;-69
2022/12/28 04:26:53;;;;;;;6.05;4.10;;;;;;;7.49;83.58;101172.09;5041002;28;20032;-68
2022/12/28 04:29:18;;;;;;;8.20;4.07;;;;;;;7.51;83.67;101175.50;5035414;28;20034;-69
2022/12/28 04:31:43;;;;;;;8.32;4.22;;;;;;;7.52;83.56;101179.94;5051463;28;20110;-68
2022/12/28 04:34:09;;;;;;;6.63;3.83;;;;;;;7.52;83.36;101178.03;5053180;28;20028;-68
2022/12/28 04:36:34;;;;;;;7.07;4.03;;;;;;;7.55;83.71;101179.50;5054288;28;20020;-68
2022/12/28 04:39:00;;;;;;;8.20;4.20;;;;;;;7.57;84.10;101175.41;5053883;28;20110;-69
2022/12/28 04:41:25;;;;;;;6.10;4.07;;;;;;;7.57;84.16;101167.13;5051067;28;20175;-68
2022/12/28 04:43:53;;;;;;;6.47;4.40;;;;;;;7.60;83.82;101169.44;5038683;28;20029;-69
2022/12/28 04:46:19;;;;;;;5.95;4.10;;;;;;;7.60;84.55;101176.91;5041278;28;20114;-68
2022/12/28 04:48:44;;;;;;;6.78;4.57;;;;;;;7.59;84.21;101164.16;5052026;28;20037;-68
2022/12/28 04:51:15;;;;;;;5.38;4.30;;;;;;;7.62;85.24;101172.84;5049356;28;20071;-68
2022/12/28 04:53:46;;;;;;;9.75;4.40;;;;;;;7.62;84.49;101178.38;5051606;28;20032;-68
2022/12/28 04:56:13;;;;;;;7.50;4.20;;;;;;;7.65;84.87;101178.97;5048823;28;20021;-68
2022/12/28 04:58:39;;;;;;;6.75;3.95;;;;;;;7.66;84.50;101170.44;5051006;28;20180;-69
2022/12/28 05:01:17;;;;;;;7.38;4.50;;;;;;;7.67;85.04;101171.31;5049093;28;20167;-68
2022/12/28 05:03:47;;;;;;;6.65;4.15;;;;;;;7.68;85.49;101165.56;5051029;28;20135;-68
2022/12/28 05:06:20;;;;;;;8.48;4.05;;;;;;;7.71;85.65;101167.88;5052024;28;20563;-69
2022/12/28 05:08:46;;;;;;;7.78;4.45;;;;;;;7.72;85.65;101163.19;5048777;28;20104;-68
2022/12/28 05:11:14;;;;;;;5.20;4.03;;;;;;;7.71;85.80;101155.97;5047047;28;20439;-68
2022/12/28 05:13:39;;;;;;;7.85;4.28;;;;;;;7.71;85.06;101156.81;5050902;28;20106;-70
2022/12/28 05:16:08;;;;;;;7.80;4.25;;;;;;;7.73;85.67;101160.19;5051405;28;20445;-69
2022/12/28 05:18:34;;;;;;;6.97;4.32;;;;;;;7.74;85.56;101161.91;5040941;28;20041;-69
2022/12/28 05:21:06;;;;;;;5.05;3.70;;;;;;;7.76;85.95;101169.94;5040671;28;20021;-69
2022/12/28 05:23:33;;;;;;;;;;;;;;;7.84;84.66;101169.66;5049556;28;20036;-68
2022/12/28 05:25:58;;;;;;;6.13;3.78;;;;;;;7.81;85.39;101156.28;5050896;28;19925;-68
2022/12/28 05:28:25;;;;;;;4.40;4.00;;;;;;;7.82;85.99;101152.44;5050529;28;20064;-68
2022/12/28 05:30:51;;;;;;;5.70;4.15;;;;;;;7.80;86.21;101147.16;5049389;28;20024;-68
2022/12/28 05:33:17;;;;;;;4.32;3.80;;;;;;;7.81;85.73;101150.75;5049600;28;20024;-69
2022/12/28 05:35:43;;;;;;;7.53;3.70;;;;;;;7.81;85.59;101145.22;5043173;28;20022;-68
2022/12/28 05:38:08;;;;;;;6.65;3.40;;;;;;;7.83;86.32;101143.09;5031128;28;20441;-69
2022/12/28 05:40:34;;;;;;;4.22;3.53;;;;;;;7.85;85.89;101154.75;5031701;28;20029;-69
2022/12/28 05:42:59;;;;;;;7.38;3.88;;;;;;;7.85;86.25;101147.31;5048685;28;20388;-68
2022/12/28 05:45:25;;;;;;;5.15;3.90;;;;;;;7.89;86.54;101153.22;5048365;28;20032;-68
2022/12/28 05:47:50;;;;;;;6.03;3.95;;;;;;;7.85;86.46;101152.00;5051480;28;20551;-68
2022/12/28 05:50:15;;;;;;;7.63;4.25;;;;;;;7.87;86.08;101144.34;5047314;28;20045;-69
2022/12/28 05:52:42;;;;;;;5.45;3.78;;;;;;;7.83;86.83;101159.69;5049185;28;20033;-69
2022/12/28 05:55:08;;;;;;;6.95;3.55;;;;;;;7.81;87.47;101157.13;5034546;28;20033;-68
2022/12/28 05:57:33;;;;;;;3.97;2.90;;;;;;;7.86;86.44;101156.47;5047641;28;20033;-69
2022/12/28 05:59:59;;;;;;;5.43;3.67;;;;;;;7.88;86.95;101146.00;5049057;28;20036;-68
2022/12/28 06:02:26;;;;;;;5.45;3.45;;;;;;;7.88;86.96;101144.09;5044124;28;20075;-68
2022/12/28 06:04:54;;;;;;;5.47;3.65;;;;;;;7.88;87.07;101140.50;5049242;28;20082;-68
2022/12/28 06:07:21;;;;;;;6.18;3.72;;;;;;;7.90;87.08;101132.84;5050718;28;20028;-68
2022/12/28 06:09:46;;;;;;;4.03;3.25;;;;;;;7.91;86.83;101125.38;5050227;28;20021;-67
2022/12/28 06:12:11;;;;;;;6.05;3.47;;;;;;;7.90;87.72;101127.31;5049715;28;20078;-68
2022/12/28 06:14:36;;;;;;;6.38;3.60;;;;;;;7.91;87.03;101126.22;5044011;28;20147;-67
2022/12/28 06:17:02;;;;;;;4.68;3.25;;;;;;;7.93;87.00;101120.44;5046626;28;20110;-67
2022/12/28 06:19:27;;;;;;;5.38;3.20;;;;;;;7.92;87.12;101108.56;5048615;28;20032;-67
2022/12/28 06:21:52;;;;;;;4.28;3.42;;;;;;;7.91;87.26;101112.41;5048942;28;20108;-66
2022/12/28 06:24:18;;;;;;;4.72;3.00;;;;;;;7.92;87.56;101104.94;5050357;28;20511;-68
2022/12/28 06:26:44;;;;;;;3.78;3.05;;;;;;;7.92;87.29;101103.03;5049289;28;20028;-68
2022/12/28 06:29:10;;;;;;;4.13;3.00;;;;;;;7.94;87.42;101113.84;5050183;28;20559;-68
2022/12/28 06:31:38;;;;;;;6.22;3.30;;;;;;;7.95;87.89;101099.81;5032263;28;20070;-68
2022/12/28 06:34:06;;;;;;;5.00;3.42;;;;;;;7.94;87.86;101091.72;5037021;28;20064;-68
2022/12/28 06:36:43;;;;;;;6.05;3.28;;;;;;;7.95;88.05;101091.53;5047435;28;20064;-67
2022/12/28 06:39:11;;;;;;;4.15;3.30;;;;;;;7.93;87.86;101096.41;5047092;28;20458;-69
2022/12/28 06:41:37;;;;;;;4.18;3.78;;;;;;;7.94;87.35;101088.97;5039949;28;20056;-70
2022/12/28 06:44:07;;;;;;;4.00;2.83;;;;;;;7.97;87.63;101081.06;5042992;28;20076;-68
2022/12/28 06:46:32;;;;;;;5.32;3.63;;;;;;;7.99;88.03;101078.94;5042277;28;20036;-68
2022/12/28 06:48:58;;;;;;;4.82;3.10;;;;;;;8.01;87.61;101089.75;5040085;28;20035;-68
2022/12/28 06:51:37;;;;;;;5.95;3.40;;;;;;;7.98;88.02;101091.06;5044104;28;20051;-69
2022/12/28 06:54:03;;;;;;;6.10;3.60;;;;;;;8.01;87.22;101085.06;5043127;28;20025;-69
2022/12/28 06:56:31;;;;;;;4.18;3.13;;;;;;;8.00;87.51;101080.59;5047880;28;20079;-70
2022/12/28 06:58:57;;;;;;;3.90;3.60;;;;;;;8.03;88.01;101091.22;5044847;28;20104;-69
2022/12/28 07:01:25;;;;;;;6.10;3.22;;;;;;;8.02;87.82;101078.47;5042400;28;20733;-69
2022/12/28 07:03:53;;;;;;;4.13;3.70;;;;;;;8.04;88.23;101086.53;5045424;28;20024;-68
2022/12/28 07:06:21;;;;;;;5.50;3.90;;;;;;;8.03;87.57;101082.91;5035214;28;20445;-71
2022/12/28 07:08:48;;;;;;;6.53;3.65;;;;;;;8.06;88.19;101082.47;5038404;28;20762;-68
2022/12/28 07:11:19;;;;;;;5.25;3.25;;;;;;;8.07;87.92;101088.84;5047572;28;20036;-67
2022/12/28 07:13:44;;;;;;;4.35;3.40;;;;;;;8.09;87.45;101079.22;5041806;28;20020;-68
2022/12/28 07:16:15;;;;;;;6.20;3.10;;;;;;;8.11;87.68;101082.59;5040245;28;20371;-67
2022/12/28 07:18:41;;;;;;;6.10;3.20;;;;;;;8.07;87.97;101084.16;5045815;28;20029;-68
2022/12/28 07:21:10;;;;;;;4.43;3.05;;;;;;;8.07;88.23;101083.31;5040125;28;20035;-66
2022/12/28 07:23:36;;;;;;;3.45;3.10;;;;;;;8.08;87.75;101085.81;5036356;28;20033;-66
2022/12/28 07:26:13;;;;;;;6.80;3.60;;;;;;;8.11;88.01;101077.06;5032570;28;20044;-67
2022/12/28 07:28:42;;;;;;;6.50;3.20;;;;;;;8.11;87.99;101082.59;5043765;28;20351;-67
2022/12/28 07:31:09;;;;;;;4.68;3.22;;;;;;;8.12;88.08;101076.00;5036382;28;20026;-68
2022/12/28 07:33:36;;;;;;;3.40;2.75;;;;;;;8.15;87.67;101084.91;5045889;28;20029;-67
2022/12/28 07:36:04;;;;;;;4.40;3.10;;;;;;;8.14;87.71;101072.19;5045203;28;20040;-67
2022/12/28 07:38:29;;;;;;;3.95;2.75;;;;;;;8.15;88.22;101074.69;5038516;28;20148;-69
2022/12/28 07:41:06;;;;;;;4.10;2.92;;;;;;;8.16;87.79;101073.59;5040644;28;20043;-68
2022/12/28 07:43:31;;;;;;;6.15;2.80;;;;;;;8.17;87.68;101078.06;5028760;28;20028;-69
2022/12/28 07:46:05;;;;;;;5.60;2.88;;;;;;;8.18;87.70;101073.41;5045247;28;20044;-69
2022/12/28 07:48:31;;;;;;;5.03;2.72;;;;;;;8.18;87.59;101077.00;5043591;28;21122;-68
2022/12/28 07:51:03;;;;;;;3.47;2.60;;;;;;;8.20;87.39;101080.38;5047680;28;20044;-69
2022/12/28 07:53:29;;;;;;;3.63;3.00;;;;;;;8.20;87.83;101082.28;5046252;28;20040;-70
2022/12/28 07:55:59;;;;;;;5.43;3.00;;;;;;;8.21;87.45;101078.44;5047082;28;20033;-68
2022/12/28 07:58:24;;;;;;;7.63;3.30;;;;;;;8.22;87.77;101075.47;5049975;28;20025;-69
2022/12/28 08:00:50;;;;;;;6.60;3.13;;;;;;;8.22;87.66;101080.16;5047350;28;20123;-69
2022/12/28 08:03:18;;;;;;;4.35;2.92;;;;;;;8.23;87.74;101079.06;5042382;28;20029;-68
2022/12/28 08:05:44;;;;;;;2.90;2.70;;;;;;;8.21;87.82;101067.38;5046054;28;20039;-69
2022/12/28 08:08:09;;;;;;;3.15;2.85;;;;;;;8.22;87.49;101074.63;5046858;28;20408;-69
2022/12/28 08:10:35;;;;;;;5.97;2.90;;;;;;;8.24;88.15;101073.28;5046084;28;20162;-66
2022/12/28 08:13:00;;;;;;;4.95;3.40;;;;;;;8.26;87.92;101075.84;5042741;28;20665;-71
2022/12/28 08:15:26;;;;;;;3.22;2.92;;;;;;;8.24;87.82;101066.91;5045433;28;20028;-70
2022/12/28 08:17:53;;;;;;;5.53;2.90;;;;;;;8.26;87.55;101071.16;5046862;28;20021;-70
2022/12/28 08:20:18;;;;;;;6.18;3.28;;;;;;;8.25;88.36;101074.13;5044740;28;20033;-69
2022/12/28 08:22:44;;;;;;;4.60;2.97;;;;;;;8.26;87.83;101071.16;5047115;28;20507;-69
2022/12/28 08:25:09;;;;;;;5.85;3.15;;;;;;;8.28;87.45;101070.91;5044884;28;20140;-69
2022/12/28 08:27:34;;;;;;;8.95;3.30;;;;;;;8.28;87.72;101063.44;5044247;28;20140;-73
2022/12/28 08:30:00;;;;;;;7.88;3.58;;;;;;;8.26;87.91;101065.63;5048407;28;20090;-69
2022/12/28 08:32:25;;;;;;;5.53;3.00;;;;;;;8.27;88.04;101078.38;5032145;28;20055;-69
2022/12/28 08:34:50;;;;;;;7.95;3.30;;;;;;;8.27;87.84;101072.00;5046010;28;20037;-71
2022/12/28 08:37:16;;;;;;;7.22;3.38;;;;;;;8.30;88.26;101060.47;5039014;28;20060;-69
2022/12/28 08:39:41;;;;;;;9.93;3.50;;;;;;;8.30;87.51;101066.00;5048748;28;20029;-69
2022/12/28 08:42:06;;;;;;;7.25;3.58;;;;;;;8.32;88.01;101066.59;5049219;28;20048;-68
2022/12/28 08:44:31;;;;;;;8.52;3.60;;;;;;;8.34;88.08;101058.94;5046798;28;20060;-68
2022/12/28 08:46:57;;;;;;;6.70;3.38;;;;;;;8.34;87.88;101067.22;5045069;28;20032;-69
2022/12/28 08:49:22;;;;;;;7.05;3.60;;;;;;;8.36;87.68;101059.53;5048164;28;20102;-67
2022/12/28 08:51:48;;;;;;;8.10;3.83;;;;;;;8.38;87.62;101062.09;5011410;28;1038655;-71
2022/12/28 08:54:13;;;;;;;143.63;88.22;;;;;;;8.36;87.99;101070.59;5041182;28;20571;-76
2022/12/28 08:56:41;;;;;;;10.23;5.35;;;;;;;8.35;87.73;101061.44;5046784;28;20115;-75
2022/12/28 08:59:07;;;;;;;6.57;3.78;;;;;;;8.34;87.95;101062.53;5049823;28;20071;-73
2022/12/28 09:01:35;;;;;;;6.60;3.65;;;;;;;8.37;87.75;101066.78;5042821;28;20111;-70
2022/12/28 09:04:01;;;;;;;9.27;3.20;;;;;;;8.35;88.02;101068.91;5044274;28;20106;-65
2022/12/28 09:06:31;;;;;;;9.20;3.33;;;;;;;8.35;88.43;101074.44;5045817;28;20465;-71
2022/12/28 09:08:58;;;;;;;8.27;3.72;;;;;;;8.32;88.18;101074.91;5040324;28;20423;-72
2022/12/28 09:11:24;;;;;;;7.05;3.60;;;;;;;8.33;88.70;101071.91;5045060;28;20047;-71
2022/12/28 09:13:49;;;;;;;7.00;3.60;;;;;;;8.35;88.77;101068.91;5049745;28;20037;-71
2022/12/28 09:16:17;;;;;;;8.80;4.28;;;;;;;8.39;88.36;101070.16;5048286;28;20036;-71
2022/12/28 09:18:43;;;;;;;10.15;3.45;;;;;;;8.41;88.12;101070.78;5048527;28;20079;-71
2022/12/28 09:21:12;;;;;;;11.00;3.50;;;;;;;8.43;88.08;101074.16;5047860;28;20119;-71
2022/12/28 09:23:38;;;;;;;10.20;3.08;;;;;;;8.42;88.82;101072.47;5046387;28;20029;-71
2022/12/28 09:26:06;;;;;;;7.38;3.22;;;;;;;8.43;88.96;101079.69;5046310;28;20451;-72
2022/12/28 09:28:31;;;;;;;7.22;3.17;;;;;;;8.43;88.95;101074.16;5048533;28;20033;-69
2022/12/28 09:30:56;;;;;;;8.68;2.65;;;;;;;8.46;88.53;101064.53;5048667;28;20164;-70
2022/12/28 09:36:05;;;;;;;3.55;2.80;;;;;;;8.46;88.46;101061.78;5048810;28;20044;-71
2022/12/28 09:38:31;;;;;;;6.38;2.85;;;;;;;8.45;88.69;101076.66;5047730;28;20033;-70
2022/12/28 09:40:57;;;;;;;5.93;2.78;;;;;;;8.53;88.88;101071.69;5049376;28;20028;-70
2022/12/28 09:43:25;;;;;;;6.97;3.25;;;;;;;8.51;88.36;101078.50;5045873;28;20481;-70
2022/12/28 09:45:53;;;;;;;8.50;5.07;;;;;;;8.52;87.59;101066.34;5049392;28;20139;-71
2022/12/28 09:48:21;;;;;;;8.02;4.93;;;;;;;8.52;88.23;101074.66;5048506;28;20365;-70
2022/12/28 09:50:49;;;;;;;5.13;3.08;;;;;;;8.52;88.14;101077.41;5047073;28;20126;-73
2022/12/28 09:53:25;;;;;;;6.55;3.25;;;;;;;8.53;88.18;101081.91;5047492;28;20041;-73
2022/12/28 09:56:20;;;;;;;3.35;2.65;;;;;;;8.53;88.24;101068.91;5048826;28;20082;-70
2022/12/28 09:58:45;;;;;;;5.03;3.70;;;;;;;8.54;87.80;101067.81;5037090;28;20083;-69
2022/12/28 10:01:13;;;;;;;3.22;2.80;;;;;;;8.56;87.46;101068.41;5048194;28;20037;-71
2022/12/28 10:03:41;;;;;;;4.03;2.53;;;;;;;8.58;88.21;101068.19;5047566;28;20036;-72
2022/12/28 10:06:27;;;;;;;3.90;2.22;;;;;;;8.62;88.02;101068.56;5041913;28;20377;-73
2022/12/28 10:08:57;;;;;;;3.60;2.40;;;;;;;8.62;87.69;101069.41;5039503;28;20029;-73
2022/12/28 10:11:33;;;;;;;2.83;2.50;;;;;;;8.60;88.37;101057.72;5036892;28;20102;-76
2022/12/28 10:14:02;;;;;;;2.08;1.88;;;;;;;8.60;88.03;101068.78;5047969;28;20036;-72
2022/12/28 10:16:33;;;;;;;4.57;2.42;;;;;;;8.63;88.32;101061.94;5045253;28;20353;-71
2022/12/28 10:18:59;;;;;;;2.25;1.95;;;;;;;8.62;88.51;101057.50;5036488;28;20362;-68
2022/12/28 10:21:29;;;;;;;3.05;2.13;;;;;;;8.62;88.33;101044.50;5049202;28;20036;-69
2022/12/28 10:23:56;;;;;;;2.78;2.50;;;;;;;8.62;88.24;101041.75;5048408;28;20384;-68
2022/12/28 10:26:21;;;;;;;3.33;3.10;;;;;;;8.63;88.45;101039.81;5048687;28;20044;-69
2022/12/28 10:28:53;;;;;;;3.33;2.63;;;;;;;8.65;88.22;101048.75;5049672;28;20033;-67
2022/12/28 10:31:33;;;;;;;3.42;2.60;;;;;;;8.67;88.72;101039.09;5045849;28;20116;-69
2022/12/28 10:33:59;;;;;;;3.55;2.40;;;;;;;8.68;88.50;101045.47;5041901;28;20033;-68
2022/12/28 10:36:26;;;;;;;4.15;2.13;;;;;;;8.66;88.24;101037.44;5049062;28;20110;-69
2022/12/28 10:38:54;;;;;;;3.53;2.15;;;;;;;8.64;88.72;101036.81;5047247;28;20040;-69
2022/12/28 10:41:21;;;;;;;3.33;2.17;;;;;;;8.68;88.03;101037.19;5048081;28;20045;-73
2022/12/28 10:43:50;;;;;;;4.47;2.60;;;;;;;8.67;88.54;101032.72;5049650;28;20060;-68
2022/12/28 10:46:19;;;;;;;4.25;2.35;;;;;;;8.70;88.78;101037.81;5049229;28;20029;-69
2022/12/28 10:48:53;;;;;;;4.43;2.60;;;;;;;8.71;88.72;101040.31;5046681;28;20028;-71
2022/12/28 10:51:22;;;;;;;3.17;2.28;;;;;;;8.70;88.66;101021.19;5045213;28;20057;-68
2022/12/28 10:53:55;;;;;;;3.53;2.28;;;;;;;8.70;88.50;101030.34;5047173;28;20507;-68
2022/12/28 10:56:26;;;;;;;4.25;2.53;;;;;;;8.72;88.39;101030.94;5047566;28;20472;-70
2022/12/28 10:59:13;;;;;;;2.58;2.35;;;;;;;8.72;88.39;101025.41;5042267;28;20067;-69
2022/12/28 11:01:40;;;;;;;4.45;2.30;;;;;;;8.73;89.02;101015.19;5045980;28;20400;-70
2022/12/28 11:04:23;;;;;;;4.22;2.72;;;;;;;8.74;89.05;101016.88;5048729;28;20039;-73
2022/12/28 11:06:50;;;;;;;5.28;2.80;;;;;;;8.74;89.00;101019.66;5043062;28;20106;-70
2022/12/28 11:09:19;;;;;;;3.17;2.75;;;;;;;8.74;88.78;101017.72;5046509;28;20028;-74
2022/12/28 11:11:46;;;;;;;6.80;3.00;;;;;;;8.74;88.67;101028.78;5050020;28;20463;-74
2022/12/28 11:14:34;;;;;;;5.90;2.60;;;;;;;8.76;88.67;101009.16;5046826;28;20029;-75
2022/12/28 11:17:27;;;;;;;4.90;2.63;;;;;;;8.76;88.41;101021.09;5048973;28;20039;-73
2022/12/28 11:20:03;;;;;;;3.08;2.50;;;;;;;8.75;88.39;101008.31;5047575;28;20056;-73
2022/12/28 11:22:29;;;;;;;5.90;2.72;;;;;;;8.74;88.95;101011.34;5046646;28;20040;-71
2022/12/28 11:24:58;;;;;;;5.93;2.90;;;;;;;8.75;88.84;101015.78;5047106;28;20078;-75
2022/12/28 11:27:24;;;;;;;4.65;3.10;;;;;;;8.77;88.89;100999.81;5047210;28;20120;-75
2022/12/28 11:29:51;;;;;;;3.55;2.55;;;;;;;8.78;88.22;100993.19;5048373;28;20440;-75
2022/12/28 11:32:31;;;;;;;5.63;2.92;;;;;;;8.79;88.64;100989.31;5049817;28;20021;-70
2022/12/28 11:35:00;;;;;;;7.60;2.80;;;;;;;8.76;88.51;100985.13;5049825;28;20175;-75
2022/12/28 11:37:25;;;;;;;3.30;2.63;;;;;;;8.77;88.55;100984.03;5049238;28;20025;-76
2022/12/28 11:39:52;;;;;;;5.38;2.65;;;;;;;8.78;88.33;100973.81;5048408;28;20025;-76
2022/12/28 11:42:35;;;;;;;5.40;2.65;;;;;;;8.78;87.93;100974.66;5046707;28;20464;-69
2022/12/28 11:45:03;;;;;;;3.67;2.63;;;;;;;8.78;88.04;100966.34;5046461;28;20059;-64
2022/12/28 11:47:34;;;;;;;7.88;3.08;;;;;;;8.77;88.06;100972.13;5048863;28;20033;-65
2022/12/28 11:50:35;;;;;;;6.10;2.60;;;;;;;8.80;88.12;100963.31;5048686;28;20029;-65
2022/12/28 11:53:02;;;;;;;6.63;3.03;;;;;;;8.76;87.89;100959.34;5050153;28;20041;-65
2022/12/28 11:55:45;;;;;;;5.53;3.03;;;;;;;8.80;87.90;100960.56;5047754;28;20052;-64
2022/12/28 11:58:29;;;;;;;6.22;3.00;;;;;;;8.81;87.93;100948.44;5050330;28;20128;-65
2022/12/28 12:00:55;;;;;;;6.07;2.42;;;;;;;8.83;87.44;100926.88;5045752;28;20028;-65
2022/12/28 12:03:56;;;;;;;6.80;3.03;;;;;;;8.85;87.32;100933.03;5049273;28;20407;-72
2022/12/28 12:06:40;;;;;;;3.30;2.92;;;;;;;8.88;87.47;100937.22;5047992;28;20124;-69
2022/12/28 12:09:26;;;;;;;7.10;2.97;;;;;;;8.88;87.22;100932.53;5030099;28;20150;-70
2022/12/28 12:11:52;;;;;;;5.72;2.90;;;;;;;8.87;86.90;100927.25;5039932;28;20039;-63
2022/12/28 12:14:30;;;;;;;6.63;2.70;;;;;;;8.87;86.90;100918.94;5048018;28;20104;-69